sensor_id;sensor_type;location;lat;lon;timestamp;temperature;humidity
18575;DHT22;9417;16.484;102.872;2023-11-22T00:01:23;18.60;99.90
18575;DHT22;9417;16.484;102.872;2023-11-22T00:03:30;18.60;99.90
18575;DHT22;9417;16.484;102.872;2023-11-22T00:05:37;18.60;99.90
18575;DHT22;9417;16.484;102.872;2023-11-22T00:07:44;18.70;99.90
18575;DHT22;9417;16.484;102.872;2023-11-22T00:09:54;18.70;99.90
18575;DHT22;9417;16.484;102.872;2023-11-22T00:12:01;18.80;99.90
18575;DHT22;9417;16.484;102.872;2023-11-22T00:14:08;18.80;99.90
18575;DHT22;9417;16.484;102.872;2023-11-22T00:16:15;18.90;99.90
18575;DHT22;9417;16.484;102.872;2023-11-22T00:18:22;18.90;99.90
18575;DHT22;9417;16.484;102.872;2023-11-22T00:20:29;19.00;99.90
18575;DHT22;9417;16.484;102.872;2023-11-22T00:22:36;19.10;99.90
18575;DHT22;9417;16.484;102.872;2023-11-22T00:24:43;19.10;99.90
18575;DHT22;9417;16.484;102.872;2023-11-22T00:26:56;19.10;99.90
18575;DHT22;9417;16.484;102.872;2023-11-22T00:29:03;19.20;99.90
18575;DHT22;9417;16.484;102.872;2023-11-22T00:31:10;19.30;99.90
18575;DHT22;9417;16.484;102.872;2023-11-22T00:33:17;19.40;99.90
18575;DHT22;9417;16.484;102.872;2023-11-22T00:35:26;19.50;99.90
18575;DHT22;9417;16.484;102.872;2023-11-22T00:37:34;19.60;99.90
18575;DHT22;9417;16.484;102.872;2023-11-22T00:39:41;19.60;99.90
18575;DHT22;9417;16.484;102.872;2023-11-22T00:41:48;19.70;99.90
18575;DHT22;9417;16.484;102.872;2023-11-22T00:43:57;19.70;99.90
18575;DHT22;9417;16.484;102.872;2023-11-22T00:46:05;19.80;99.90
18575;DHT22;9417;16.484;102.872;2023-11-22T00:48:12;19.90;99.90
18575;DHT22;9417;16.484;102.872;2023-11-22T00:50:19;19.90;99.90
18575;DHT22;9417;16.484;102.872;2023-11-22T00:52:26;20.00;99.90
18575;DHT22;9417;16.484;102.872;2023-11-22T00:54:33;20.10;99.90
18575;DHT22;9417;16.484;102.872;2023-11-22T00:56:41;20.30;99.70
18575;DHT22;9417;16.484;102.872;2023-11-22T00:58:47;20.40;99.70
18575;DHT22;9417;16.484;102.872;2023-11-22T01:00:56;20.50;99.10
18575;DHT22;9417;16.484;102.872;2023-11-22T01:03:19;20.60;98.60
18575;DHT22;9417;16.484;102.872;2023-11-22T01:05:27;20.80;98.60
18575;DHT22;9417;16.484;102.872;2023-11-22T01:07:34;20.90;98.50
18575;DHT22;9417;16.484;102.872;2023-11-22T01:09:39;21.00;96.10
18575;DHT22;9417;16.484;102.872;2023-11-22T01:11:46;21.10;95.90
18575;DHT22;9417;16.484;102.872;2023-11-22T01:13:54;21.20;94.90
18575;DHT22;9417;16.484;102.872;2023-11-22T01:16:01;21.30;95.00
18575;DHT22;9417;16.484;102.872;2023-11-22T01:18:09;21.40;95.50
18575;DHT22;9417;16.484;102.872;2023-11-22T01:20:16;21.60;94.50
18575;DHT22;9417;16.484;102.872;2023-11-22T01:22:23;21.60;94.20
18575;DHT22;9417;16.484;102.872;2023-11-22T01:24:30;21.70;93.30
18575;DHT22;9417;16.484;102.872;2023-11-22T01:26:37;21.80;93.00
18575;DHT22;9417;16.484;102.872;2023-11-22T01:28:44;21.90;91.40
18575;DHT22;9417;16.484;102.872;2023-11-22T01:30:52;22.00;90.70
18575;DHT22;9417;16.484;102.872;2023-11-22T01:32:59;22.10;89.90
18575;DHT22;9417;16.484;102.872;2023-11-22T01:35:07;22.20;87.50
18575;DHT22;9417;16.484;102.872;2023-11-22T01:37:14;22.20;88.10
18575;DHT22;9417;16.484;102.872;2023-11-22T01:39:21;22.30;88.50
18575;DHT22;9417;16.484;102.872;2023-11-22T01:41:28;22.40;88.50
18575;DHT22;9417;16.484;102.872;2023-11-22T01:43:36;22.50;86.70
18575;DHT22;9417;16.484;102.872;2023-11-22T01:45:44;22.50;86.00
18575;DHT22;9417;16.484;102.872;2023-11-22T01:47:51;22.60;87.30
18575;DHT22;9417;16.484;102.872;2023-11-22T01:50:00;22.70;85.40
18575;DHT22;9417;16.484;102.872;2023-11-22T01:52:07;22.80;84.90
18575;DHT22;9417;16.484;102.872;2023-11-22T01:54:15;22.80;85.30
18575;DHT22;9417;16.484;102.872;2023-11-22T01:56:24;22.90;85.00
18575;DHT22;9417;16.484;102.872;2023-11-22T01:58:32;22.90;84.40
18575;DHT22;9417;16.484;102.872;2023-11-22T02:00:46;23.00;83.20
18575;DHT22;9417;16.484;102.872;2023-11-22T02:02:55;23.10;83.90
18575;DHT22;9417;16.484;102.872;2023-11-22T02:05:04;23.10;83.70
18575;DHT22;9417;16.484;102.872;2023-11-22T02:07:11;23.20;83.30
18575;DHT22;9417;16.484;102.872;2023-11-22T02:09:18;23.30;83.40
18575;DHT22;9417;16.484;102.872;2023-11-22T02:11:25;23.40;83.30
18575;DHT22;9417;16.484;102.872;2023-11-22T02:13:32;23.40;80.80
18575;DHT22;9417;16.484;102.872;2023-11-22T02:15:40;23.50;81.80
18575;DHT22;9417;16.484;102.872;2023-11-22T02:17:47;23.50;81.20
18575;DHT22;9417;16.484;102.872;2023-11-22T02:20:00;23.60;80.30
18575;DHT22;9417;16.484;102.872;2023-11-22T02:22:12;23.70;80.10
18575;DHT22;9417;16.484;102.872;2023-11-22T02:24:21;23.70;79.60
18575;DHT22;9417;16.484;102.872;2023-11-22T02:26:27;23.90;78.10
18575;DHT22;9417;16.484;102.872;2023-11-22T02:28:36;24.00;79.50
18575;DHT22;9417;16.484;102.872;2023-11-22T02:30:43;24.20;77.20
18575;DHT22;9417;16.484;102.872;2023-11-22T02:32:51;24.20;77.40
18575;DHT22;9417;16.484;102.872;2023-11-22T02:34:58;24.30;77.80
18575;DHT22;9417;16.484;102.872;2023-11-22T02:37:06;24.30;78.00
18575;DHT22;9417;16.484;102.872;2023-11-22T02:39:13;24.30;76.30
18575;DHT22;9417;16.484;102.872;2023-11-22T02:41:22;24.30;76.00
18575;DHT22;9417;16.484;102.872;2023-11-22T02:43:30;24.50;76.30
18575;DHT22;9417;16.484;102.872;2023-11-22T02:45:37;24.50;74.90
18575;DHT22;9417;16.484;102.872;2023-11-22T02:47:46;24.60;75.20
18575;DHT22;9417;16.484;102.872;2023-11-22T02:49:53;24.70;74.50
18575;DHT22;9417;16.484;102.872;2023-11-22T02:52:00;24.70;74.70
18575;DHT22;9417;16.484;102.872;2023-11-22T02:54:08;24.80;75.50
18575;DHT22;9417;16.484;102.872;2023-11-22T02:56:15;24.80;75.50
18575;DHT22;9417;16.484;102.872;2023-11-22T02:58:24;24.80;74.90
18575;DHT22;9417;16.484;102.872;2023-11-22T03:00:31;25.00;73.90
18575;DHT22;9417;16.484;102.872;2023-11-22T03:02:39;25.00;74.00
18575;DHT22;9417;16.484;102.872;2023-11-22T03:04:46;25.10;74.40
18575;DHT22;9417;16.484;102.872;2023-11-22T03:06:54;25.10;74.80
18575;DHT22;9417;16.484;102.872;2023-11-22T03:09:00;25.10;74.10
18575;DHT22;9417;16.484;102.872;2023-11-22T03:11:07;25.10;73.70
18575;DHT22;9417;16.484;102.872;2023-11-22T03:13:14;25.20;73.20
18575;DHT22;9417;16.484;102.872;2023-11-22T03:15:21;25.30;72.80
18575;DHT22;9417;16.484;102.872;2023-11-22T03:17:32;25.40;72.70
18575;DHT22;9417;16.484;102.872;2023-11-22T03:19:39;25.50;71.70
18575;DHT22;9417;16.484;102.872;2023-11-22T03:21:46;25.60;71.90
18575;DHT22;9417;16.484;102.872;2023-11-22T03:23:53;25.70;71.90
18575;DHT22;9417;16.484;102.872;2023-11-22T03:26:01;25.80;69.30
18575;DHT22;9417;16.484;102.872;2023-11-22T03:28:08;25.90;69.10
18575;DHT22;9417;16.484;102.872;2023-11-22T03:30:16;26.00;69.80
18575;DHT22;9417;16.484;102.872;2023-11-22T03:32:26;26.10;69.10
18575;DHT22;9417;16.484;102.872;2023-11-22T03:34:33;26.20;68.60
18575;DHT22;9417;16.484;102.872;2023-11-22T03:36:41;26.20;68.30
18575;DHT22;9417;16.484;102.872;2023-11-22T03:38:48;26.20;67.90
18575;DHT22;9417;16.484;102.872;2023-11-22T03:40:55;26.20;69.20
18575;DHT22;9417;16.484;102.872;2023-11-22T03:43:02;26.40;67.90
18575;DHT22;9417;16.484;102.872;2023-11-22T03:45:10;26.50;67.00
18575;DHT22;9417;16.484;102.872;2023-11-22T03:47:17;26.60;67.60
18575;DHT22;9417;16.484;102.872;2023-11-22T03:49:26;26.60;68.10
18575;DHT22;9417;16.484;102.872;2023-11-22T03:51:34;26.60;66.90
18575;DHT22;9417;16.484;102.872;2023-11-22T03:53:41;26.70;66.40
18575;DHT22;9417;16.484;102.872;2023-11-22T03:55:48;26.70;64.60
18575;DHT22;9417;16.484;102.872;2023-11-22T03:57:56;26.80;66.30
18575;DHT22;9417;16.484;102.872;2023-11-22T04:00:04;26.80;66.00
18575;DHT22;9417;16.484;102.872;2023-11-22T04:02:17;26.90;64.10
18575;DHT22;9417;16.484;102.872;2023-11-22T04:04:26;27.00;65.30
18575;DHT22;9417;16.484;102.872;2023-11-22T04:06:33;27.00;62.60
18575;DHT22;9417;16.484;102.872;2023-11-22T04:08:39;27.10;62.00
18575;DHT22;9417;16.484;102.872;2023-11-22T04:10:48;27.20;62.00
18575;DHT22;9417;16.484;102.872;2023-11-22T04:12:55;27.20;61.90
18575;DHT22;9417;16.484;102.872;2023-11-22T04:15:03;27.30;61.30
18575;DHT22;9417;16.484;102.872;2023-11-22T04:17:09;27.40;61.90
18575;DHT22;9417;16.484;102.872;2023-11-22T04:19:17;27.50;62.20
18575;DHT22;9417;16.484;102.872;2023-11-22T04:21:27;27.50;62.70
18575;DHT22;9417;16.484;102.872;2023-11-22T04:23:34;27.60;63.20
18575;DHT22;9417;16.484;102.872;2023-11-22T04:25:42;27.60;62.80
18575;DHT22;9417;16.484;102.872;2023-11-22T04:27:49;27.60;63.00
18575;DHT22;9417;16.484;102.872;2023-11-22T04:29:56;27.60;61.80
18575;DHT22;9417;16.484;102.872;2023-11-22T04:32:02;27.60;62.00
18575;DHT22;9417;16.484;102.872;2023-11-22T04:34:09;27.70;61.50
18575;DHT22;9417;16.484;102.872;2023-11-22T04:36:15;27.80;60.10
18575;DHT22;9417;16.484;102.872;2023-11-22T04:38:27;27.80;58.90
18575;DHT22;9417;16.484;102.872;2023-11-22T04:40:34;27.90;58.30
18575;DHT22;9417;16.484;102.872;2023-11-22T04:42:42;28.00;59.60
18575;DHT22;9417;16.484;102.872;2023-11-22T04:44:49;28.10;57.40
18575;DHT22;9417;16.484;102.872;2023-11-22T04:46:56;28.20;57.20
18575;DHT22;9417;16.484;102.872;2023-11-22T04:49:04;28.30;57.60
18575;DHT22;9417;16.484;102.872;2023-11-22T04:51:12;28.40;57.80
18575;DHT22;9417;16.484;102.872;2023-11-22T04:53:21;28.60;57.80
18575;DHT22;9417;16.484;102.872;2023-11-22T04:55:30;28.70;56.50
18575;DHT22;9417;16.484;102.872;2023-11-22T04:57:36;28.70;57.20
18575;DHT22;9417;16.484;102.872;2023-11-22T04:59:45;28.70;53.60
18575;DHT22;9417;16.484;102.872;2023-11-22T05:01:52;28.70;53.90
18575;DHT22;9417;16.484;102.872;2023-11-22T05:03:59;28.80;55.90
18575;DHT22;9417;16.484;102.872;2023-11-22T05:06:07;28.70;52.80
18575;DHT22;9417;16.484;102.872;2023-11-22T05:08:14;28.80;54.20
18575;DHT22;9417;16.484;102.872;2023-11-22T05:10:21;28.80;53.50
18575;DHT22;9417;16.484;102.872;2023-11-22T05:12:30;28.90;53.60
18575;DHT22;9417;16.484;102.872;2023-11-22T05:14:37;29.00;55.00
18575;DHT22;9417;16.484;102.872;2023-11-22T05:16:44;29.00;54.40
18575;DHT22;9417;16.484;102.872;2023-11-22T05:18:52;29.00;53.10
18575;DHT22;9417;16.484;102.872;2023-11-22T05:20:59;29.10;53.90
18575;DHT22;9417;16.484;102.872;2023-11-22T05:23:08;29.00;53.70
18575;DHT22;9417;16.484;102.872;2023-11-22T05:25:15;29.10;54.20
18575;DHT22;9417;16.484;102.872;2023-11-22T05:27:22;29.20;53.60
18575;DHT22;9417;16.484;102.872;2023-11-22T05:29:31;29.20;53.40
18575;DHT22;9417;16.484;102.872;2023-11-22T05:31:49;29.20;52.60
18575;DHT22;9417;16.484;102.872;2023-11-22T05:33:57;29.20;53.20
18575;DHT22;9417;16.484;102.872;2023-11-22T05:36:04;29.20;52.70
18575;DHT22;9417;16.484;102.872;2023-11-22T05:38:12;29.30;52.50
18575;DHT22;9417;16.484;102.872;2023-11-22T05:40:19;29.40;53.00
18575;DHT22;9417;16.484;102.872;2023-11-22T05:42:26;29.30;52.20
18575;DHT22;9417;16.484;102.872;2023-11-22T05:44:33;29.30;53.30
18575;DHT22;9417;16.484;102.872;2023-11-22T05:46:40;29.30;52.40
18575;DHT22;9417;16.484;102.872;2023-11-22T05:48:47;29.30;52.80
18575;DHT22;9417;16.484;102.872;2023-11-22T05:50:55;29.40;52.80
18575;DHT22;9417;16.484;102.872;2023-11-22T05:53:02;29.30;53.40
18575;DHT22;9417;16.484;102.872;2023-11-22T05:55:10;29.40;54.10
18575;DHT22;9417;16.484;102.872;2023-11-22T05:57:18;29.40;53.80
18575;DHT22;9417;16.484;102.872;2023-11-22T05:59:26;29.50;51.50
18575;DHT22;9417;16.484;102.872;2023-11-22T06:01:35;29.50;52.00
18575;DHT22;9417;16.484;102.872;2023-11-22T06:03:42;29.60;51.70
18575;DHT22;9417;16.484;102.872;2023-11-22T06:05:49;29.60;51.50
18575;DHT22;9417;16.484;102.872;2023-11-22T06:07:57;29.50;51.60
18575;DHT22;9417;16.484;102.872;2023-11-22T06:10:04;29.60;50.60
18575;DHT22;9417;16.484;102.872;2023-11-22T06:12:11;29.60;51.80
18575;DHT22;9417;16.484;102.872;2023-11-22T06:14:18;29.70;51.80
18575;DHT22;9417;16.484;102.872;2023-11-22T06:16:26;29.70;51.90
18575;DHT22;9417;16.484;102.872;2023-11-22T06:18:35;29.80;52.60
18575;DHT22;9417;16.484;102.872;2023-11-22T06:20:44;29.80;53.00
18575;DHT22;9417;16.484;102.872;2023-11-22T06:22:52;29.90;52.40
18575;DHT22;9417;16.484;102.872;2023-11-22T06:24:59;29.90;52.70
18575;DHT22;9417;16.484;102.872;2023-11-22T06:27:06;29.90;50.90
18575;DHT22;9417;16.484;102.872;2023-11-22T06:29:13;29.90;51.90
18575;DHT22;9417;16.484;102.872;2023-11-22T06:31:20;30.00;49.80
18575;DHT22;9417;16.484;102.872;2023-11-22T06:33:26;30.00;49.50
18575;DHT22;9417;16.484;102.872;2023-11-22T06:35:35;30.00;49.00
18575;DHT22;9417;16.484;102.872;2023-11-22T06:37:42;30.00;48.60
18575;DHT22;9417;16.484;102.872;2023-11-22T06:39:49;30.00;49.10
18575;DHT22;9417;16.484;102.872;2023-11-22T06:41:57;30.00;50.50
18575;DHT22;9417;16.484;102.872;2023-11-22T06:44:04;30.00;50.70
18575;DHT22;9417;16.484;102.872;2023-11-22T06:46:11;30.00;48.40
18575;DHT22;9417;16.484;102.872;2023-11-22T06:48:17;30.00;49.00
18575;DHT22;9417;16.484;102.872;2023-11-22T06:50:25;30.00;47.70
18575;DHT22;9417;16.484;102.872;2023-11-22T06:52:33;30.10;49.40
18575;DHT22;9417;16.484;102.872;2023-11-22T06:54:41;30.10;48.60
18575;DHT22;9417;16.484;102.872;2023-11-22T06:56:46;30.20;47.80
18575;DHT22;9417;16.484;102.872;2023-11-22T06:58:55;30.10;49.50
18575;DHT22;9417;16.484;102.872;2023-11-22T07:01:01;30.10;49.20
18575;DHT22;9417;16.484;102.872;2023-11-22T07:03:09;30.10;49.00
18575;DHT22;9417;16.484;102.872;2023-11-22T07:05:17;30.20;50.70
18575;DHT22;9417;16.484;102.872;2023-11-22T07:07:24;30.20;50.00
18575;DHT22;9417;16.484;102.872;2023-11-22T07:09:31;30.20;49.00
18575;DHT22;9417;16.484;102.872;2023-11-22T07:11:39;30.20;49.20
18575;DHT22;9417;16.484;102.872;2023-11-22T07:13:48;30.30;48.00
18575;DHT22;9417;16.484;102.872;2023-11-22T07:15:56;30.30;48.80
18575;DHT22;9417;16.484;102.872;2023-11-22T07:18:03;30.30;47.70
18575;DHT22;9417;16.484;102.872;2023-11-22T07:20:10;30.20;48.20
18575;DHT22;9417;16.484;102.872;2023-11-22T07:22:20;30.20;48.30
18575;DHT22;9417;16.484;102.872;2023-11-22T07:24:30;30.30;48.60
18575;DHT22;9417;16.484;102.872;2023-11-22T07:26:38;30.40;47.90
18575;DHT22;9417;16.484;102.872;2023-11-22T07:28:47;30.40;48.70
18575;DHT22;9417;16.484;102.872;2023-11-22T07:30:54;30.40;48.20
18575;DHT22;9417;16.484;102.872;2023-11-22T07:33:01;30.40;48.30
18575;DHT22;9417;16.484;102.872;2023-11-22T07:35:09;30.40;49.00
18575;DHT22;9417;16.484;102.872;2023-11-22T07:37:16;30.50;49.20
18575;DHT22;9417;16.484;102.872;2023-11-22T07:39:23;30.40;47.70
18575;DHT22;9417;16.484;102.872;2023-11-22T07:41:33;30.40;48.60
18575;DHT22;9417;16.484;102.872;2023-11-22T07:43:40;30.40;48.70
18575;DHT22;9417;16.484;102.872;2023-11-22T07:45:49;30.40;48.00
18575;DHT22;9417;16.484;102.872;2023-11-22T07:47:57;30.30;49.20
18575;DHT22;9417;16.484;102.872;2023-11-22T07:50:05;30.30;49.20
18575;DHT22;9417;16.484;102.872;2023-11-22T07:52:13;30.30;49.30
18575;DHT22;9417;16.484;102.872;2023-11-22T07:54:20;30.30;49.50
18575;DHT22;9417;16.484;102.872;2023-11-22T07:56:27;30.20;49.30
18575;DHT22;9417;16.484;102.872;2023-11-22T07:58:36;30.20;49.00
18575;DHT22;9417;16.484;102.872;2023-11-22T08:00:41;30.20;50.00
18575;DHT22;9417;16.484;102.872;2023-11-22T08:02:50;30.10;49.20
18575;DHT22;9417;16.484;102.872;2023-11-22T08:04:59;30.10;49.70
18575;DHT22;9417;16.484;102.872;2023-11-22T08:07:06;30.10;50.60
18575;DHT22;9417;16.484;102.872;2023-11-22T08:09:16;30.10;50.20
18575;DHT22;9417;16.484;102.872;2023-11-22T08:11:24;30.00;51.10
18575;DHT22;9417;16.484;102.872;2023-11-22T08:13:32;30.00;51.20
18575;DHT22;9417;16.484;102.872;2023-11-22T08:15:42;30.00;51.80
18575;DHT22;9417;16.484;102.872;2023-11-22T08:17:51;29.90;51.10
18575;DHT22;9417;16.484;102.872;2023-11-22T08:19:58;29.90;50.30
18575;DHT22;9417;16.484;102.872;2023-11-22T08:22:04;30.00;51.00
18575;DHT22;9417;16.484;102.872;2023-11-22T08:24:11;30.00;51.50
18575;DHT22;9417;16.484;102.872;2023-11-22T08:26:19;30.00;50.00
18575;DHT22;9417;16.484;102.872;2023-11-22T08:28:26;30.00;51.00
18575;DHT22;9417;16.484;102.872;2023-11-22T08:30:33;29.90;51.30
18575;DHT22;9417;16.484;102.872;2023-11-22T08:32:44;29.90;50.00
18575;DHT22;9417;16.484;102.872;2023-11-22T08:34:55;29.90;49.30
18575;DHT22;9417;16.484;102.872;2023-11-22T08:37:01;29.90;50.00
18575;DHT22;9417;16.484;102.872;2023-11-22T08:39:08;29.90;50.50
18575;DHT22;9417;16.484;102.872;2023-11-22T08:41:15;29.90;49.30
18575;DHT22;9417;16.484;102.872;2023-11-22T08:43:22;29.90;49.50
18575;DHT22;9417;16.484;102.872;2023-11-22T08:45:30;29.90;50.50
18575;DHT22;9417;16.484;102.872;2023-11-22T08:47:37;29.90;49.70
18575;DHT22;9417;16.484;102.872;2023-11-22T08:49:46;29.90;50.60
18575;DHT22;9417;16.484;102.872;2023-11-22T08:51:53;29.80;50.20
18575;DHT22;9417;16.484;102.872;2023-11-22T08:54:01;29.80;51.00
18575;DHT22;9417;16.484;102.872;2023-11-22T08:56:08;29.70;51.80
18575;DHT22;9417;16.484;102.872;2023-11-22T08:58:16;29.70;51.50
18575;DHT22;9417;16.484;102.872;2023-11-22T09:00:23;29.60;51.10
18575;DHT22;9417;16.484;102.872;2023-11-22T09:02:33;29.60;50.50
18575;DHT22;9417;16.484;102.872;2023-11-22T09:04:38;29.60;51.20
18575;DHT22;9417;16.484;102.872;2023-11-22T09:06:47;29.60;50.60
18575;DHT22;9417;16.484;102.872;2023-11-22T09:08:54;29.60;49.70
18575;DHT22;9417;16.484;102.872;2023-11-22T09:11:02;29.50;50.30
18575;DHT22;9417;16.484;102.872;2023-11-22T09:13:11;29.50;49.70
18575;DHT22;9417;16.484;102.872;2023-11-22T09:15:21;29.50;51.10
18575;DHT22;9417;16.484;102.872;2023-11-22T09:17:32;29.50;50.70
18575;DHT22;9417;16.484;102.872;2023-11-22T09:19:38;29.50;51.20
18575;DHT22;9417;16.484;102.872;2023-11-22T09:21:47;29.50;49.70
18575;DHT22;9417;16.484;102.872;2023-11-22T09:23:55;29.50;50.60
18575;DHT22;9417;16.484;102.872;2023-11-22T09:26:01;29.50;50.10
18575;DHT22;9417;16.484;102.872;2023-11-22T09:28:10;29.50;51.10
18575;DHT22;9417;16.484;102.872;2023-11-22T09:30:19;29.40;51.70
18575;DHT22;9417;16.484;102.872;2023-11-22T09:32:37;29.30;50.30
18575;DHT22;9417;16.484;102.872;2023-11-22T09:34:45;29.30;50.10
18575;DHT22;9417;16.484;102.872;2023-11-22T09:36:54;29.40;50.10
18575;DHT22;9417;16.484;102.872;2023-11-22T09:39:01;29.40;50.50
18575;DHT22;9417;16.484;102.872;2023-11-22T09:41:08;29.30;50.10
18575;DHT22;9417;16.484;102.872;2023-11-22T09:43:16;29.30;50.50
18575;DHT22;9417;16.484;102.872;2023-11-22T09:45:23;29.30;50.20
18575;DHT22;9417;16.484;102.872;2023-11-22T09:47:33;29.20;50.10
18575;DHT22;9417;16.484;102.872;2023-11-22T09:49:41;29.20;50.60
18575;DHT22;9417;16.484;102.872;2023-11-22T09:51:49;29.20;50.30
18575;DHT22;9417;16.484;102.872;2023-11-22T09:54:00;29.20;51.70
18575;DHT22;9417;16.484;102.872;2023-11-22T09:56:12;29.20;53.10
18575;DHT22;9417;16.484;102.872;2023-11-22T09:58:20;29.00;52.20
18575;DHT22;9417;16.484;102.872;2023-11-22T10:00:29;29.00;53.40
18575;DHT22;9417;16.484;102.872;2023-11-22T10:02:36;28.90;54.50
18575;DHT22;9417;16.484;102.872;2023-11-22T10:04:43;28.80;55.50
18575;DHT22;9417;16.484;102.872;2023-11-22T10:06:51;28.70;56.10
18575;DHT22;9417;16.484;102.872;2023-11-22T10:09:00;28.50;56.90
18575;DHT22;9417;16.484;102.872;2023-11-22T10:11:26;28.40;57.10
18575;DHT22;9417;16.484;102.872;2023-11-22T10:13:33;28.30;57.60
18575;DHT22;9417;16.484;102.872;2023-11-22T10:15:40;28.20;58.30
18575;DHT22;9417;16.484;102.872;2023-11-22T10:17:55;28.10;59.90
18575;DHT22;9417;16.484;102.872;2023-11-22T10:20:09;28.00;62.70
18575;DHT22;9417;16.484;102.872;2023-11-22T10:22:17;27.90;64.80
18575;DHT22;9417;16.484;102.872;2023-11-22T10:24:31;27.80;62.70
18575;DHT22;9417;16.484;102.872;2023-11-22T10:26:38;27.70;63.60
18575;DHT22;9417;16.484;102.872;2023-11-22T10:28:51;27.60;65.60
18575;DHT22;9417;16.484;102.872;2023-11-22T10:30:58;27.50;65.60
18575;DHT22;9417;16.484;102.872;2023-11-22T10:33:05;27.50;64.70
18575;DHT22;9417;16.484;102.872;2023-11-22T10:35:13;27.40;66.50
18575;DHT22;9417;16.484;102.872;2023-11-22T10:37:23;27.30;67.80
18575;DHT22;9417;16.484;102.872;2023-11-22T10:39:32;27.20;66.80
18575;DHT22;9417;16.484;102.872;2023-11-22T10:41:39;27.10;68.50
18575;DHT22;9417;16.484;102.872;2023-11-22T10:43:46;27.10;70.50
18575;DHT22;9417;16.484;102.872;2023-11-22T10:45:54;27.00;68.30
18575;DHT22;9417;16.484;102.872;2023-11-22T10:48:02;26.90;67.40
18575;DHT22;9417;16.484;102.872;2023-11-22T10:50:10;26.80;68.20
18575;DHT22;9417;16.484;102.872;2023-11-22T10:52:19;26.70;68.20
18575;DHT22;9417;16.484;102.872;2023-11-22T10:54:27;26.60;72.40
18575;DHT22;9417;16.484;102.872;2023-11-22T10:56:38;26.50;73.30
18575;DHT22;9417;16.484;102.872;2023-11-22T10:58:49;26.40;74.20
18575;DHT22;9417;16.484;102.872;2023-11-22T11:00:57;26.30;75.40
18575;DHT22;9417;16.484;102.872;2023-11-22T11:03:14;26.20;75.30
18575;DHT22;9417;16.484;102.872;2023-11-22T11:05:22;26.10;74.60
18575;DHT22;9417;16.484;102.872;2023-11-22T11:07:33;26.00;76.30
18575;DHT22;9417;16.484;102.872;2023-11-22T11:09:44;25.90;76.00
18575;DHT22;9417;16.484;102.872;2023-11-22T11:11:54;25.90;76.50
18575;DHT22;9417;16.484;102.872;2023-11-22T11:14:03;25.80;76.60
18575;DHT22;9417;16.484;102.872;2023-11-22T11:16:12;25.80;76.80
18575;DHT22;9417;16.484;102.872;2023-11-22T11:18:19;25.70;77.10
18575;DHT22;9417;16.484;102.872;2023-11-22T11:20:27;25.70;76.70
18575;DHT22;9417;16.484;102.872;2023-11-22T11:22:38;25.60;76.60
18575;DHT22;9417;16.484;102.872;2023-11-22T11:24:48;25.60;77.40
18575;DHT22;9417;16.484;102.872;2023-11-22T11:27:03;25.50;76.70
18575;DHT22;9417;16.484;102.872;2023-11-22T11:29:30;25.50;75.50
18575;DHT22;9417;16.484;102.872;2023-11-22T11:31:40;25.40;75.90
18575;DHT22;9417;16.484;102.872;2023-11-22T11:33:55;25.30;75.90
18575;DHT22;9417;16.484;102.872;2023-11-22T11:36:04;25.30;75.40
18575;DHT22;9417;16.484;102.872;2023-11-22T11:38:12;25.30;77.10
18575;DHT22;9417;16.484;102.872;2023-11-22T11:40:32;25.20;76.30
18575;DHT22;9417;16.484;102.872;2023-11-22T11:42:44;25.10;75.40
18575;DHT22;9417;16.484;102.872;2023-11-22T11:45:07;25.10;78.10
18575;DHT22;9417;16.484;102.872;2023-11-22T11:47:14;25.00;77.60
18575;DHT22;9417;16.484;102.872;2023-11-22T11:49:23;24.80;76.40
18575;DHT22;9417;16.484;102.872;2023-11-22T11:51:30;24.80;78.60
18575;DHT22;9417;16.484;102.872;2023-11-22T11:53:37;24.80;79.80
18575;DHT22;9417;16.484;102.872;2023-11-22T11:55:44;24.70;80.30
18575;DHT22;9417;16.484;102.872;2023-11-22T11:57:54;24.70;81.30
18575;DHT22;9417;16.484;102.872;2023-11-22T12:00:01;24.60;80.30
18575;DHT22;9417;16.484;102.872;2023-11-22T12:02:16;24.60;79.00
18575;DHT22;9417;16.484;102.872;2023-11-22T12:04:23;24.60;78.20
18575;DHT22;9417;16.484;102.872;2023-11-22T12:06:31;24.60;79.60
18575;DHT22;9417;16.484;102.872;2023-11-22T12:08:41;24.60;79.10
18575;DHT22;9417;16.484;102.872;2023-11-22T12:10:48;24.60;78.50
18575;DHT22;9417;16.484;102.872;2023-11-22T12:12:57;24.60;80.30
18575;DHT22;9417;16.484;102.872;2023-11-22T12:15:05;24.60;80.00
18575;DHT22;9417;16.484;102.872;2023-11-22T12:17:14;24.50;79.20
18575;DHT22;9417;16.484;102.872;2023-11-22T12:19:25;24.40;78.50
18575;DHT22;9417;16.484;102.872;2023-11-22T12:21:32;24.40;80.50
18575;DHT22;9417;16.484;102.872;2023-11-22T12:23:40;24.40;81.30
18575;DHT22;9417;16.484;102.872;2023-11-22T12:25:47;24.40;83.00
18575;DHT22;9417;16.484;102.872;2023-11-22T12:27:58;24.30;82.80
18575;DHT22;9417;16.484;102.872;2023-11-22T12:30:06;24.30;82.30
18575;DHT22;9417;16.484;102.872;2023-11-22T12:32:13;24.30;83.20
18575;DHT22;9417;16.484;102.872;2023-11-22T12:34:23;24.20;82.70
18575;DHT22;9417;16.484;102.872;2023-11-22T12:36:30;24.20;83.30
18575;DHT22;9417;16.484;102.872;2023-11-22T12:38:36;24.10;83.90
18575;DHT22;9417;16.484;102.872;2023-11-22T12:40:47;24.10;83.40
18575;DHT22;9417;16.484;102.872;2023-11-22T12:42:54;24.10;82.80
18575;DHT22;9417;16.484;102.872;2023-11-22T12:45:03;24.00;80.80
18575;DHT22;9417;16.484;102.872;2023-11-22T12:47:10;23.90;79.10
18575;DHT22;9417;16.484;102.872;2023-11-22T12:49:17;23.90;80.80
18575;DHT22;9417;16.484;102.872;2023-11-22T12:51:24;23.90;81.30
18575;DHT22;9417;16.484;102.872;2023-11-22T12:53:31;23.90;80.80
18575;DHT22;9417;16.484;102.872;2023-11-22T12:55:41;23.90;80.10
18575;DHT22;9417;16.484;102.872;2023-11-22T12:57:57;23.90;81.10
18575;DHT22;9417;16.484;102.872;2023-11-22T13:00:08;23.90;79.80
18575;DHT22;9417;16.484;102.872;2023-11-22T13:02:16;23.80;81.40
18575;DHT22;9417;16.484;102.872;2023-11-22T13:04:23;23.80;82.60
18575;DHT22;9417;16.484;102.872;2023-11-22T13:06:31;23.70;83.50
18575;DHT22;9417;16.484;102.872;2023-11-22T13:08:38;23.70;83.60
18575;DHT22;9417;16.484;102.872;2023-11-22T13:10:45;23.70;82.70
18575;DHT22;9417;16.484;102.872;2023-11-22T13:12:55;23.60;80.90
18575;DHT22;9417;16.484;102.872;2023-11-22T13:15:04;23.50;80.20
18575;DHT22;9417;16.484;102.872;2023-11-22T13:17:14;23.40;80.40